Latest Coastal Weather Observations for Sydney Airport

IDN60701

Issued at 1:35 am EST Friday 19 September 2014 (issued every 10 minutes, with the page automatically refreshed every 10 minutes)

About coastal observations | Map of coastal stations | Coastal observations for NSW | Marine services | Other Formats
Station Details ID: 066037 Name: SYDNEY AIRPORT AMO Lat: -33.95 Lon: 151.17 Height: 6.0 m
Data from the previous 72 hours. | See also: Recent months at Sydney Airport
Date/Time
EST
Temp

°C
Wind Pressure Rain
since 9am
mm
Weather Cloud Vis
km
Sea
Height
m
Swell
Dir
 
Speed
knots
Gust
knots
hPa Trend Height
m
Period
s
Dir
19/01:30am 10.3 W 7 9 1020.8 - 0.0 - - 10 - - - -
19/01:00am 11.1 WNW 8 10 1020.9 - 0.0 - - 10 - - - -
19/12:30am 11.7 WNW 8 9 1020.9 - 0.0 - - 10 - - - -
19/12:00am 11.9 W 10 12 1021.1 S 0.0 Fine Partly cloudy 10 - - - -
 
Date/Time
EST
Temp

°C
Wind Pressure Rain
since 9am
mm
Weather Cloud Vis
km
Sea
Height
m
Swell
Dir
 
Speed
knots
Gust
knots
hPa Trend Height
m
Period
s
Dir
18/11:30pm 12.1 WNW 7 8 1021.2 - 0.0 - - 10 - - - -
18/11:00pm 12.5 W 8 9 1021.3 - 0.0 - - 10 - - - -
18/10:30pm 12.6 WSW 8 9 1021.2 - 0.0 - - 10 - - - -
18/10:00pm 12.8 W 9 10 1021.3 - 0.0 - - 10 - - - -
18/09:30pm 13.3 W 9 18 1021.3 - 0.0 - Partly cloudy 10 - - - -
18/09:00pm 13.6 W 8 11 1021.3 R 0.0 Fine Mostly clear 30 - - - -
18/08:30pm 14.0 WSW 10 13 1021.2 - 0.0 - Partly cloudy 10 - - - -
18/08:00pm 14.5 SW 9 10 1020.8 - 0.0 - Partly cloudy 10 - - - -
18/07:30pm 15.3 S 7 10 1020.2 - 0.0 - Partly cloudy 10 - - - -
18/07:00pm 15.5 SSE 9 12 1019.8 - 0.0 - Partly cloudy 10 - - - -
18/06:30pm 15.4 SSE 9 11 1019.5 - 0.0 - Partly cloudy 10 - - - -
18/06:00pm 15.4 SSE 9 12 1019.2 R 0.0 Fine Partly cloudy 30 - - - -
18/05:30pm 15.4 SE 11 15 1018.9 - 0.0 - - 10 - - - -
18/05:00pm 15.9 SSE 13 17 1018.4 - 0.0 - - 10 - - - -
18/04:30pm 16.4 SE 14 18 1018.0 - 0.0 - - 10 - - - -
18/04:00pm 16.5 SSE 12 16 1017.7 - 0.0 - - 10 - - - -
18/03:30pm 16.5 SSE 15 18 1017.5 - 0.0 - - 10 - - - -
18/03:00pm 16.0 S 15 20 1017.3 R 0.0 Fine Partly cloudy 40 - - - -
18/02:30pm 16.2 S 14 17 1017.1 - 0.0 - - 10 - - - -
18/02:00pm 17.6 SSE 12 15 1017.2 - 0.0 - - 10 - - - -
18/01:30pm 16.4 S 11 15 1017.4 - 0.0 - - 10 - - - -
18/01:00pm 17.2 SSE 10 14 1017.4 - 0.0 - - 10 - - - -
18/12:30pm 16.9 SSE 11 14 1017.6 - 0.0 - - 10 - - - -
18/12:00pm 16.9 S 12 16 1017.8 R 0.0 Fine Mostly clear 40 - - - -
18/11:30am 17.1 SSE 11 15 1018.1 - 0.0 - - 10 - - - -
18/11:00am 17.0 SSE 12 16 1018.2 - 0.0 - Mostly clear 10 - - - -
18/10:30am 16.4 S 11 18 1018.4 - 0.0 - Mostly clear 10 - - - -
18/10:00am 16.0 SW 10 14 1018.5 - 0.0 - Mostly clear 10 - - - -
18/09:30am 15.5 W 14 17 1018.5 - 0.0 - Mostly clear 10 - - - -
18/09:00am 15.2 W 17 21 1018.5 R 0.0 Fine Mostly clear 35 - - - -
18/08:30am 14.2 WSW 17 21 1018.5 - 0.0 - Mostly clear 10 - - - -
18/08:00am 13.7 W 16 20 1018.1 - 0.0 - Mostly clear 10 - - - -
18/07:30am 13.3 W 9 11 1018.0 - 0.0 - Mostly clear 10 - - - -
18/07:00am 12.4 WSW 11 18 1017.9 - 0.0 - Mostly clear 10 - - - -
18/06:30am 11.4 WSW 9 17 1017.5 - 0.0 - Mostly clear 10 - - - -
18/06:00am 11.0 W 8 9 1017.1 R 0.0 Fine Mostly clear 30 - - - -
18/05:30am 11.6 W 9 10 1016.8 - 0.0 - Mostly clear 10 - - - -
18/05:00am 11.9 W 9 11 1016.5 - 0.0 - Mostly clear 10 - - - -
18/04:30am 12.1 WSW 10 16 1016.3 - 0.0 - - 10 - - - -
18/04:00am 12.6 WSW 11 14 1016.1 - 0.0 - - 10 - - - -
18/03:30am 13.0 WSW 8 10 1015.8 - 0.0 - - 10 - - - -
18/03:00am 14.0 WSW 17 21 1015.7 R 0.0 Fine Clear 30 - - - -
18/02:30am 13.6 SW 14 17 1015.5 - 0.0 - - 10 - - - -
18/02:00am 13.0 W 11 15 1015.2 - 0.0 - - 10 - - - -
18/01:30am 13.3 W 13 19 1015.2 - 0.0 - - 10 - - - -
18/01:00am 13.5 W 13 18 1015.3 - 0.0 - - 10 - - - -
18/12:30am 13.1 W 7 9 1015.3 - 0.0 - - 10 - - - -
18/12:00am 13.8 WNW 7 10 1015.1 R 0.0 Fine Clear 30 - - - -
 
Date/Time
EST
Temp

°C
Wind Pressure Rain
since 9am
mm
Weather Cloud Vis
km
Sea
Height
m
Swell
Dir
 
Speed
knots
Gust
knots
hPa Trend Height
m
Period
s
Dir
17/11:30pm 14.2 WNW 7 8 1015.0 - 0.0 - - 10 - - - -
17/11:00pm 14.3 W 7 9 1015.0 - 0.0 - - 10 - - - -
17/10:30pm 14.8 W 11 15 1014.8 - 0.0 - - 10 - - - -
17/10:00pm 15.3 W 11 16 1014.6 - 0.0 - - 10 - - - -
17/09:30pm 15.9 WNW 9 12 1014.4 - 0.0 - - 10 - - - -
17/09:00pm 15.7 W 12 18 1014.2 R 0.0 Fine Mostly clear 30 - - - -
17/08:30pm 15.4 W 5 7 1014.0 - 0.0 - - 10 - - - -
17/08:00pm 16.2 WSW 7 8 1013.7 - 0.0 - - 10 - - - -
17/07:30pm 16.6 WSW 9 13 1013.5 - 0.0 - Partly cloudy 10 - - - -
17/07:00pm 17.6 W 13 17 1013.2 - 0.0 - - 10 - - - -
17/06:30pm 18.1 W 17 23 1012.6 - 0.0 - - 10 - - - -
17/06:00pm 18.5 W 17 22 1012.1 R 0.0 Fine Mostly clear 30 - - - -
17/05:30pm 19.8 W 15 21 1011.6 - 0.0 - - 10 - - - -
17/05:00pm 19.8 W 16 21 1011.4 - 0.0 - - 10 - - - -
17/04:30pm 20.7 W 19 26 1010.9 - 0.0 - - 10 - - - -
17/04:00pm 20.9 W 19 27 1010.7 - 0.0 - - 10 - - - -
17/03:49pm 20.9 W 22 32 1010.5 - 0.0 - - 10 - - - -
17/03:30pm 20.4 W 24 30 1010.2 - 0.0 - - 10 - - - -
17/03:19pm 20.7 W 20 30 1010.2 - 0.0 - - 10 - - - -
17/03:00pm 21.4 W 19 24 1010.1 R 0.0 Fine Partly cloudy 30 - - - -
17/02:36pm 22.0 W 17 29 1010.1 - 0.0 - - 10 - - - -
17/02:30pm 21.5 W 19 26 1010.1 - 0.0 - - 10 - - - -
17/02:00pm 20.9 W 22 27 1010.0 - 0.0 - Partly cloudy 10 - - - -
17/01:53pm 21.0 WSW 20 27 1010.0 - 0.0 - Mostly clear 10 - - - -
17/01:33pm 21.8 WNW 17 27 1010.2 - 0.0 - Mostly clear 10 - - - -
17/01:30pm 21.4 WNW 18 27 1010.2 - 0.0 - Mostly clear 10 - - - -
17/01:00pm 22.0 W 16 22 1010.2 - 0.0 - - 10 - - - -
17/12:42pm 22.0 W 15 26 1010.3 - 0.0 - - 10 - - - -
17/12:30pm 20.6 W 19 24 1010.4 - 0.0 - - 10 - - - -
17/12:00pm 20.6 W 15 22 1010.7 S 0.0 Fine Partly cloudy 30 - - - -
17/11:30am 20.3 W 20 26 1010.9 - 0.0 - - 10 - - - -
17/11:00am 19.7 W 19 26 1011.2 - 0.0 - - 10 - - - -
17/10:30am 18.8 W 19 25 1011.4 - 0.0 - - 10 - - - -
17/10:00am 19.2 WSW 23 29 1011.4 - 0.0 - - 10 - - - -
17/09:44am 18.5 W 20 30 1011.6 - 0.0 - - 10 - - - -
17/09:30am 18.5 W 21 29 1011.9 - 0.0 - - 10 - - - -
17/09:00am 17.5 W 21 31 1012.2 S 0.0 Fine Mostly cloudy 30 - - - -
17/08:54am 17.6 W 20 30 1012.1 - 0.0 - - 10 - - - -
17/08:30am 17.0 W 19 26 1012.2 - 0.0 - - 10 - - - -
17/08:11am 16.9 W 17 27 1012.2 - 0.0 - - 10 - - - -
17/08:00am 16.7 W 17 24 1012.2 - 0.0 - - 10 - - - -
17/07:30am 16.5 W 16 21 1012.1 - 0.0 - - 10 - - - -
17/07:00am 15.8 WNW 15 20 1011.9 - 0.0 - - 10 - - - -
17/06:30am 15.6 NW 10 14 1011.6 - 0.0 - - 10 - - - -
17/06:00am 14.3 NW 8 9 1011.2 R 0.0 Fine Mostly clear 30 - - - -
17/05:30am 14.6 NW 9 11 1010.8 - 0.0 - Partly cloudy 10 - - - -
17/05:00am 13.7 N 8 9 1010.5 - 0.0 - Partly cloudy 10 - - - -
17/04:30am 14.5 NW 7 8 1009.9 - 0.0 - - 10 - - - -
17/04:00am 14.6 W 10 13 1009.7 - 0.0 - - 10 - - - -
17/03:30am 14.8 WNW 9 12 1009.5 - 0.0 - - 10 - - - -
17/03:00am 14.8 WNW 12 14 1009.3 R 0.0 Fine Mostly clear 30 - - - -
17/02:30am 14.8 W 12 15 1009.4 - 0.0 - Partly cloudy 10 - - - -
17/02:00am 14.8 W 11 14 1009.4 - 0.0 - Partly cloudy 10 - - - -
17/01:30am 14.6 NW 10 13 1009.4 - 0.0 - Partly cloudy 10 - - - -
17/01:00am 14.9 NW 10 13 1009.5 - 0.0 - - 10 - - - -
17/12:30am 14.8 NW 9 12 1009.6 - 0.0 - - 10 - - - -
17/12:00am 14.9 WNW 7 8 1009.6 R 0.0 Fine Clear 30 - - - -
 
Date/Time
EST
Temp

°C
Wind Pressure Rain
since 9am
mm
Weather Cloud Vis
km
Sea
Height
m
Swell
Dir
 
Speed
knots
Gust
knots
hPa Trend Height
m
Period
s
Dir
16/11:30pm 15.8 NW 7 8 1009.6 - 0.0 - - 10 - - - -
16/11:00pm 16.2 NW 10 15 1009.4 - 0.0 - - 10 - - - -
16/10:30pm 16.5 WNW 13 17 1009.4 - 0.0 - - 10 - - - -
16/10:00pm 16.8 WNW 16 20 1009.2 - 0.0 - - 10 - - - -
16/09:30pm 17.0 W 17 22 1009.3 - 0.0 - - 10 - - - -
16/09:00pm 17.3 W 17 22 1009.4 R 0.0 Fine Mostly clear 30 - - - -
16/08:30pm 18.2 WNW 19 22 1009.2 - 0.0 - Cloudy 10 - - - -
16/08:16pm 18.5 W 21 31 1009.2 - 0.0 - Cloudy 10 - - - -
16/08:00pm 18.6 W 20 26 1009.2 - 0.0 - Cloudy 10 - - - -
16/07:30pm 19.3 W 16 21 1009.0 - 0.0 - Mostly clear 10 - - - -
16/07:00pm 19.6 W 17 22 1008.8 - 0.0 - Mostly clear 10 - - - -
16/06:30pm 20.2 W 21 26 1008.1 - 0.0 - Mostly clear 10 - - - -
16/06:00pm 21.0 W 21 27 1007.5 R 0.0 Fine Partly cloudy 30 - - - -
16/05:30pm 21.6 W 16 20 1006.9 - 0.0 - Mostly clear 10 - - - -
16/05:00pm 22.3 WNW 17 25 1006.5 - 0.0 - Mostly clear 10 - - - -
16/04:50pm 23.1 WNW 15 20 1006.3 - 0.0 - Mostly clear 10 - - - -
16/04:30pm 21.4 N 3 6 1006.2 - 0.0 - Mostly clear 10 - - - -
16/04:00pm 20.5 SSE 4 5 1006.0 - 0.0 - Mostly clear 10 - - - -
16/03:30pm 19.9 S 6 10 1005.7 - 0.0 - Mostly clear 10 - - - -
16/03:00pm 22.9 NNE 14 17 1005.3 F 0.0 Haze Partly cloudy 20 - - - -
16/02:30pm 20.8 NNE 18 21 1005.2 - 0.0 - Mostly clear 10 - - - -
16/02:00pm 20.9 NNE 16 19 1005.7 - 0.0 - Mostly clear 10 - - - -
16/01:30pm 21.7 NNE 17 20 1005.8 - 0.0 - Mostly clear 10 - - - -
16/01:00pm 22.5 NNE 16 19 1006.3 - 0.0 - Mostly clear 10 - - - -
16/12:30pm 22.3 NNE 19 25 1006.9 - 0.0 - Mostly clear 10 - - - -
16/12:00pm 21.5 NNE 20 26 1007.6 F 0.0 Haze Mostly clear 20 - - - -
16/11:30am 21.3 NE 19 27 1008.3 - 0.0 - Mostly clear 10 - - - -
16/11:00am 20.3 NNE 16 21 1009.2 - 0.0 - Mostly clear 10 - - - -
16/10:54am 20.6 N 15 18 1009.4 - 0.0 Thunderstorm Mostly clear 10 - - - -
16/10:30am 19.5 N 15 19 1009.8 - 0.0 Showers Mostly clear 10 - - - -
16/10:00am 20.1 N 17 28 1010.3 - 0.0 - Mostly clear 10 - - - -
16/09:50am 20.2 N 19 25 1010.1 - 0.0 Thunder Mostly clear 10 - - - -
16/09:30am 20.4 NE 21 32 1009.8 - 0.0 - Mostly clear 10 - - - -
16/09:00am 19.6 NE 20 26 1010.0 F 0.2 Haze Mostly cloudy 18 - - - -
16/08:43am 19.5 NE 15 20 1010.1 - 0.2 - Mostly clear 10 - - - -
16/08:30am 18.1 E 7 9 1010.6 - 0.2 - Mostly clear 10 - - - -
16/08:00am 17.1 W 8 10 1011.9 - 0.2 - Mostly clear 10 - - - -
16/07:30am 15.9 WSW 6 8 1011.5 - 0.2 - Mostly clear 10 - - - -
16/07:00am 16.6 WNW 5 9 1012.0 - 0.2 - Mostly clear 10 - - - -
16/06:30am 17.0 N 5 6 1011.8 - 0.2 - Mostly clear 10 - - - -
16/06:00am 15.7 W 4 5 1011.7 F 0.2 Lightning Partly cloudy 20 - - - -
16/05:30am 15.2 SW 9 11 1012.1 - 0.2 - Mostly clear 10 - - - -
16/05:00am 14.9 ENE 9 11 1012.1 - 0.2 - Partly cloudy 10 - - - -
16/04:30am 15.5 NNW 5 7 1013.2 - 0.0 - Mostly clear 10 - - - -
16/04:00am 15.5 WSW 7 9 1012.5 - 0.0 - Mostly cloudy 10 - - - -
16/03:30am 16.5 WNW 4 5 1012.4 - 0.0 - Mostly cloudy 10 - - - -
16/03:00am 16.9 NNE 7 8 1012.3 F 0.0 Fine Mostly cloudy 25 - - - -
16/02:30am 16.6 N 7 10 1012.8 - 0.0 - Mostly clear 10 - - - -
16/02:00am 16.8 NNE 10 14 1012.7 - 0.0 - Mostly clear 10 - - - -

Other Formats:

Comma delimited format used in spreadsheet applications
http://www.bom.gov.au/fwo/IDN60701/IDN60701.94767.axf

JavaScript Object Notation format (JSON) in row-major order
http://www.bom.gov.au/fwo/IDN60701/IDN60701.94767.json